Time;durP1;ratioP1;P1;durP2;ratioP2;P2;SDS_P1;SDS_P2;PMS_P1;PMS_P2;Temp;Humidity;BMP_temperature;BMP_pressure;BME280_temperature;BME280_humidity;BME280_pressure;Samples;Min_cycle;Max_cycle;Signal;HPM_P1;HPM_P2
2022/02/24 00:01:15;;;;;;;4.68;2.42;;;5.30;99.90;;;;;;494083;241;27621;-76
2022/02/24 00:03:16;;;;;;;3.78;2.30;;;5.20;99.90;;;;;;494050;241;27489;-75
2022/02/24 00:05:17;;;;;;;2.60;2.40;;;5.10;99.90;;;;;;494043;241;27616;-77
2022/02/24 00:07:18;;;;;;;2.70;2.50;;;5.00;99.90;;;;;;494054;241;28084;-76
2022/02/24 00:09:20;;;;;;;2.20;2.10;;;5.00;99.90;;;;;;494042;241;27924;-76
2022/02/24 00:11:21;;;;;;;2.28;2.17;;;5.00;99.90;;;;;;494053;241;28054;-76
2022/02/24 00:13:22;;;;;;;2.10;1.90;;;5.10;99.90;;;;;;494028;241;27486;-76
2022/02/24 00:15:24;;;;;;;2.92;2.45;;;5.10;99.90;;;;;;493991;241;27508;-76
2022/02/24 00:17:25;;;;;;;3.17;2.20;;;5.10;99.90;;;;;;494074;241;27509;-77
2022/02/24 00:19:26;;;;;;;2.25;2.05;;;5.20;99.90;;;;;;493997;241;27567;-76
2022/02/24 00:21:27;;;;;;;2.92;1.92;;;5.30;99.90;;;;;;494018;241;27515;-77
2022/02/24 00:23:28;;;;;;;2.22;2.12;;;5.30;99.90;;;;;;493996;241;27484;-76
2022/02/24 00:25:30;;;;;;;3.30;2.17;;;5.40;99.90;;;;;;494001;241;27466;-75
2022/02/24 00:27:31;;;;;;;3.83;2.28;;;5.50;99.90;;;;;;494117;241;28014;-77
2022/02/24 00:29:32;;;;;;;2.45;2.03;;;5.50;99.90;;;;;;494049;241;27930;-76
2022/02/24 00:31:33;;;;;;;2.10;1.87;;;5.60;99.90;;;;;;494043;241;27508;-77
2022/02/24 00:33:35;;;;;;;2.97;2.40;;;5.60;99.90;;;;;;494085;241;27546;-77
2022/02/24 00:35:36;;;;;;;3.70;2.40;;;5.60;99.90;;;;;;494091;241;27487;-77
2022/02/24 00:37:37;;;;;;;2.72;2.08;;;5.70;99.90;;;;;;494072;241;27495;-76
2022/02/24 00:39:38;;;;;;;2.05;1.95;;;5.70;99.90;;;;;;494085;241;27562;-77
2022/02/24 00:41:40;;;;;;;2.40;2.20;;;5.80;99.90;;;;;;494095;241;27494;-77
2022/02/24 00:43:41;;;;;;;2.12;2.00;;;5.80;99.90;;;;;;494059;241;27496;-76
2022/02/24 00:45:42;;;;;;;2.45;2.05;;;5.80;99.90;;;;;;494089;241;27933;-77
2022/02/24 00:47:44;;;;;;;3.12;2.17;;;5.80;99.90;;;;;;494096;241;28122;-76
2022/02/24 00:49:45;;;;;;;2.30;2.10;;;5.80;99.90;;;;;;494054;241;27616;-77
2022/02/24 00:51:46;;;;;;;2.85;2.30;;;5.80;99.90;;;;;;494053;241;27506;-77
2022/02/24 00:53:47;;;;;;;2.10;1.60;;;5.80;99.90;;;;;;494101;241;27625;-77
2022/02/24 00:55:49;;;;;;;2.72;2.30;;;5.80;99.90;;;;;;494106;241;27467;-77
2022/02/24 00:57:50;;;;;;;2.05;1.95;;;5.80;99.90;;;;;;494020;241;27564;-76
2022/02/24 00:59:52;;;;;;;2.03;1.85;;;5.90;99.90;;;;;;494052;241;27463;-76
2022/02/24 01:01:52;;;;;;;3.17;2.30;;;5.90;99.90;;;;;;494067;241;28130;-76
2022/02/24 01:03:54;;;;;;;2.75;1.80;;;5.90;99.90;;;;;;494075;241;28043;-76
2022/02/24 01:05:55;;;;;;;3.12;1.98;;;6.00;99.90;;;;;;494107;240;28099;-77
2022/02/24 01:07:56;;;;;;;6.85;2.03;;;6.00;99.90;;;;;;494069;241;27534;-77
2022/02/24 01:09:57;;;;;;;2.05;1.83;;;6.00;99.90;;;;;;494065;241;27573;-75
2022/02/24 01:11:59;;;;;;;2.05;1.85;;;6.00;99.90;;;;;;494083;241;27526;-77
2022/02/24 01:14:00;;;;;;;1.98;1.83;;;6.00;99.90;;;;;;494065;241;27515;-77
2022/02/24 01:16:01;;;;;;;2.83;1.90;;;5.90;99.90;;;;;;494093;241;27543;-77
2022/02/24 01:18:02;;;;;;;2.00;1.90;;;5.80;99.90;;;;;;494047;241;27508;-77
2022/02/24 01:20:04;;;;;;;3.08;1.67;;;5.90;99.90;;;;;;494095;241;28045;-77
2022/02/24 01:22:05;;;;;;;1.70;1.60;;;6.00;99.90;;;;;;494037;241;27989;-76
2022/02/24 01:24:06;;;;;;;1.92;1.70;;;6.00;99.90;;;;;;494081;241;27495;-76
2022/02/24 01:26:08;;;;;;;3.08;2.15;;;6.00;99.90;;;;;;494118;241;27463;-77
2022/02/24 01:28:09;;;;;;;1.90;1.80;;;6.00;99.90;;;;;;494056;241;27612;-77
2022/02/24 01:30:10;;;;;;;2.62;1.50;;;6.00;99.90;;;;;;494128;241;27848;-76
2022/02/24 01:32:11;;;;;;;1.73;1.60;;;6.00;99.90;;;;;;494091;241;27863;-76
2022/02/24 01:34:12;;;;;;;1.90;1.80;;;6.10;99.90;;;;;;494103;241;27509;-77
2022/02/24 01:36:14;;;;;;;1.70;1.60;;;6.20;99.90;;;;;;494034;241;27987;-75
2022/02/24 01:38:15;;;;;;;3.85;1.85;;;6.20;99.90;;;;;;494063;241;27999;-76
2022/02/24 01:40:16;;;;;;;1.40;1.30;;;6.10;99.90;;;;;;494087;241;27505;-77
2022/02/24 01:42:17;;;;;;;1.60;1.50;;;6.10;99.90;;;;;;494059;241;27538;-76
2022/02/24 01:44:19;;;;;;;2.33;1.80;;;6.10;99.90;;;;;;494099;241;27510;-77
2022/02/24 01:46:20;;;;;;;1.85;1.70;;;6.10;99.90;;;;;;494121;241;27480;-77
2022/02/24 01:48:21;;;;;;;3.37;1.90;;;6.20;99.90;;;;;;494048;241;27553;-76
2022/02/24 01:50:22;;;;;;;2.50;2.05;;;6.30;99.90;;;;;;494069;241;27507;-76
2022/02/24 01:52:24;;;;;;;1.52;1.42;;;6.20;99.90;;;;;;494043;241;28061;-76
2022/02/24 01:54:25;;;;;;;3.35;2.10;;;6.30;99.90;;;;;;494040;241;28073;-77
2022/02/24 01:56:26;;;;;;;2.10;1.70;;;6.30;99.90;;;;;;494063;241;27524;-78
2022/02/24 01:58:27;;;;;;;2.87;1.95;;;6.20;99.90;;;;;;494073;241;27470;-76
2022/02/24 02:00:29;;;;;;;1.70;1.60;;;6.20;99.90;;;;;;494063;241;27526;-76
2022/02/24 02:02:30;;;;;;;1.87;1.77;;;6.30;99.90;;;;;;494062;241;27480;-76
2022/02/24 02:04:31;;;;;;;1.60;1.50;;;6.20;99.90;;;;;;494063;241;27510;-76
2022/02/24 02:06:34;;;;;;;2.22;1.70;;;6.20;99.90;;;;;;494124;236;28143;-77
2022/02/24 02:08:34;;;;;;;1.70;1.48;;;6.20;99.90;;;;;;494046;241;27940;-76
2022/02/24 02:10:35;;;;;;;1.75;1.65;;;6.20;99.90;;;;;;494079;241;27527;-77
2022/02/24 02:12:36;;;;;;;2.00;1.80;;;6.30;99.90;;;;;;494065;241;27487;-76
2022/02/24 02:14:38;;;;;;;1.80;1.70;;;6.30;99.90;;;;;;494086;241;27518;-75
2022/02/24 02:16:39;;;;;;;1.70;1.60;;;6.30;99.90;;;;;;494021;241;27508;-75
2022/02/24 02:18:41;;;;;;;1.98;1.65;;;6.30;99.90;;;;;;494093;241;27493;-76
2022/02/24 02:20:41;;;;;;;2.22;1.60;;;6.30;99.90;;;;;;494025;241;27598;-76
2022/02/24 02:22:43;;;;;;;2.15;1.70;;;6.30;99.90;;;;;;494080;241;27928;-76
2022/02/24 02:24:44;;;;;;;2.12;1.90;;;6.30;99.90;;;;;;494089;241;27996;-77
2022/02/24 02:26:46;;;;;;;2.00;1.80;;;6.30;99.90;;;;;;494065;241;27602;-77
2022/02/24 02:28:46;;;;;;;1.70;1.60;;;6.30;99.90;;;;;;493999;241;27489;-77
2022/02/24 02:30:48;;;;;;;1.80;1.70;;;6.30;99.90;;;;;;494070;241;27545;-77
2022/02/24 02:32:49;;;;;;;1.85;1.75;;;6.30;99.90;;;;;;494098;241;27523;-76
2022/02/24 02:34:50;;;;;;;2.55;1.92;;;6.30;99.90;;;;;;494063;241;27510;-76
2022/02/24 02:36:51;;;;;;;1.70;1.60;;;6.30;99.90;;;;;;494075;241;28799;-76
2022/02/24 02:38:53;;;;;;;2.20;1.80;;;6.20;99.90;;;;;;494143;241;28036;-77
2022/02/24 02:40:54;;;;;;;1.90;1.60;;;6.30;99.90;;;;;;494120;241;27543;-76
2022/02/24 02:42:55;;;;;;;3.28;1.60;;;6.30;99.90;;;;;;494063;241;27494;-77
2022/02/24 02:44:56;;;;;;;1.80;1.70;;;6.30;99.90;;;;;;494045;241;27533;-75
2022/02/24 02:46:58;;;;;;;1.50;1.40;;;6.30;99.90;;;;;;494043;241;27586;-76
2022/02/24 02:48:59;;;;;;;1.70;1.60;;;6.30;99.90;;;;;;494065;241;27473;-76
2022/02/24 02:51:00;;;;;;;1.73;1.60;;;6.30;99.90;;;;;;494045;241;27514;-76
2022/02/24 02:53:02;;;;;;;1.58;1.52;;;6.30;99.90;;;;;;494045;241;27963;-75
2022/02/24 02:55:03;;;;;;;1.85;1.75;;;6.40;99.90;;;;;;494131;241;27497;-76
2022/02/24 02:57:04;;;;;;;1.75;1.62;;;6.30;99.90;;;;;;494072;241;27556;-73
2022/02/24 02:59:05;;;;;;;2.00;1.80;;;6.30;99.90;;;;;;494020;241;27522;-73
2022/02/24 03:01:07;;;;;;;1.60;1.50;;;6.30;99.90;;;;;;494059;241;27510;-73
2022/02/24 03:03:08;;;;;;;2.30;1.60;;;6.30;99.90;;;;;;494052;241;27558;-73
2022/02/24 03:05:09;;;;;;;1.45;1.40;;;6.30;99.90;;;;;;494052;241;27501;-73
2022/02/24 03:07:10;;;;;;;1.50;1.40;;;6.30;99.90;;;;;;494060;241;27997;-72
2022/02/24 03:09:11;;;;;;;2.15;1.95;;;6.30;99.90;;;;;;494060;241;28080;-74
2022/02/24 03:11:13;;;;;;;1.52;1.42;;;6.30;99.90;;;;;;494107;241;27546;-76
2022/02/24 03:13:14;;;;;;;1.67;1.50;;;6.30;99.90;;;;;;494063;241;27604;-75
2022/02/24 03:15:17;;;;;;;2.10;1.90;;;6.30;99.90;;;;;;494092;241;27510;-77
2022/02/24 03:17:16;;;;;;;1.70;1.60;;;6.30;99.90;;;;;;494060;241;27527;-78
2022/02/24 03:19:18;;;;;;;1.40;1.30;;;6.30;99.90;;;;;;494104;241;27478;-77
2022/02/24 03:21:19;;;;;;;1.70;1.60;;;6.30;99.90;;;;;;494049;241;27975;-75
2022/02/24 03:23:20;;;;;;;1.50;1.40;;;6.20;99.90;;;;;;494081;241;27907;-73
2022/02/24 03:25:22;;;;;;;1.52;1.42;;;6.20;99.90;;;;;;494104;241;27917;-76
2022/02/24 03:27:23;;;;;;;1.40;1.40;;;6.20;99.90;;;;;;494080;241;27528;-73
2022/02/24 03:29:24;;;;;;;1.30;1.30;;;6.20;99.90;;;;;;494148;240;27482;-76
2022/02/24 03:31:25;;;;;;;1.40;1.40;;;6.20;99.90;;;;;;494127;241;27609;-77
2022/02/24 03:33:27;;;;;;;1.85;1.75;;;6.20;99.90;;;;;;494105;241;27488;-77
2022/02/24 03:35:28;;;;;;;2.00;1.90;;;6.30;99.90;;;;;;494085;241;27506;-77
2022/02/24 03:37:29;;;;;;;1.60;1.55;;;6.30;99.90;;;;;;494116;241;28031;-77
2022/02/24 03:39:30;;;;;;;1.70;1.60;;;6.30;99.90;;;;;;494143;241;27897;-77
2022/02/24 03:41:32;;;;;;;1.42;1.33;;;6.30;99.90;;;;;;494120;241;27491;-76
2022/02/24 03:43:33;;;;;;;1.30;1.30;;;6.30;99.90;;;;;;494111;241;27566;-74
2022/02/24 03:45:34;;;;;;;1.70;1.60;;;6.30;99.90;;;;;;494120;241;27525;-74
2022/02/24 03:47:35;;;;;;;1.40;1.37;;;6.30;99.90;;;;;;494122;241;27871;-74
2022/02/24 03:49:37;;;;;;;1.40;1.40;;;6.40;99.90;;;;;;494118;241;27495;-74
2022/02/24 03:51:38;;;;;;;1.60;1.50;;;6.40;99.90;;;;;;494130;241;28009;-77
2022/02/24 03:53:39;;;;;;;1.60;1.30;;;6.40;99.90;;;;;;494080;241;28039;-77
2022/02/24 03:55:40;;;;;;;1.58;1.40;;;6.30;99.90;;;;;;494075;241;27594;-77
2022/02/24 03:57:42;;;;;;;1.92;1.73;;;6.30;99.90;;;;;;494093;241;27630;-75
2022/02/24 03:59:43;;;;;;;1.70;1.60;;;6.40;99.90;;;;;;494089;241;27562;-76
2022/02/24 04:01:44;;;;;;;1.50;1.40;;;6.30;99.90;;;;;;494076;241;27516;-76
2022/02/24 04:03:45;;;;;;;1.48;1.37;;;6.40;99.90;;;;;;494059;241;27531;-74
2022/02/24 04:05:47;;;;;;;1.73;1.62;;;6.30;99.90;;;;;;494093;241;28018;-74
2022/02/24 04:07:48;;;;;;;1.85;1.65;;;6.30;99.90;;;;;;494101;241;28071;-77
2022/02/24 04:09:49;;;;;;;1.50;1.40;;;6.30;99.90;;;;;;494108;241;27567;-77
2022/02/24 04:11:50;;;;;;;1.42;1.33;;;6.30;99.90;;;;;;494146;241;27506;-75
2022/02/24 04:13:52;;;;;;;1.45;1.37;;;6.30;99.90;;;;;;494069;241;27477;-74
2022/02/24 04:15:53;;;;;;;1.40;1.30;;;6.30;99.90;;;;;;494067;241;27630;-75
2022/02/24 04:17:54;;;;;;;1.20;1.20;;;6.20;99.90;;;;;;494083;236;27522;-74
2022/02/24 04:19:55;;;;;;;1.48;1.42;;;6.30;99.90;;;;;;494075;241;28058;-75
2022/02/24 04:21:57;;;;;;;1.45;1.35;;;6.30;99.90;;;;;;494096;241;28009;-76
2022/02/24 04:23:58;;;;;;;2.45;1.40;;;6.30;99.90;;;;;;494088;241;27472;-74
2022/02/24 04:25:59;;;;;;;1.20;1.10;;;6.30;99.90;;;;;;494115;241;27541;-76
2022/02/24 04:28:01;;;;;;;1.45;1.35;;;6.30;99.90;;;;;;494127;241;27630;-77
2022/02/24 04:30:02;;;;;;;1.50;1.40;;;6.40;99.90;;;;;;494100;241;27483;-75
2022/02/24 04:32:03;;;;;;;2.67;1.55;;;6.40;99.90;;;;;;494093;241;27586;-74
2022/02/24 04:34:04;;;;;;;2.00;1.40;;;6.40;99.90;;;;;;494062;236;27915;-75
2022/02/24 04:36:06;;;;;;;4.32;1.65;;;6.40;99.90;;;;;;494062;241;28002;-74
2022/02/24 04:38:07;;;;;;;1.45;1.40;;;6.50;99.90;;;;;;494085;241;27540;-74
2022/02/24 04:40:08;;;;;;;1.67;1.58;;;6.40;99.90;;;;;;494082;240;27476;-74
2022/02/24 04:42:09;;;;;;;1.48;1.40;;;6.50;99.90;;;;;;494100;241;27538;-76
2022/02/24 04:44:11;;;;;;;1.70;1.60;;;6.40;99.90;;;;;;494111;241;27486;-77
2022/02/24 04:46:12;;;;;;;1.70;1.52;;;6.40;99.90;;;;;;494080;241;27484;-76
2022/02/24 04:48:13;;;;;;;1.70;1.60;;;6.40;99.90;;;;;;494084;241;28020;-73
2022/02/24 04:50:14;;;;;;;1.55;1.45;;;6.30;99.90;;;;;;494055;241;28087;-74
2022/02/24 04:52:16;;;;;;;1.40;1.15;;;6.30;99.90;;;;;;494094;241;27518;-75
2022/02/24 04:54:17;;;;;;;1.40;1.33;;;6.30;99.90;;;;;;494069;241;27616;-74
2022/02/24 04:56:18;;;;;;;2.47;1.50;;;6.30;99.90;;;;;;494128;241;27486;-78
2022/02/24 04:58:19;;;;;;;2.85;1.80;;;6.40;99.90;;;;;;494098;241;27534;-77
2022/02/24 05:00:21;;;;;;;3.67;1.60;;;6.40;99.90;;;;;;494048;241;27538;-76
2022/02/24 05:02:22;;;;;;;1.60;1.50;;;6.40;99.90;;;;;;494107;241;27914;-78
2022/02/24 05:04:23;;;;;;;1.80;1.58;;;6.40;99.90;;;;;;494066;241;28095;-77
2022/02/24 05:06:24;;;;;;;1.70;1.60;;;6.40;99.90;;;;;;494077;241;27491;-76
2022/02/24 05:08:26;;;;;;;1.87;1.77;;;6.40;99.90;;;;;;494077;241;27621;-75
2022/02/24 05:10:27;;;;;;;1.55;1.50;;;6.40;99.90;;;;;;494055;236;27563;-76
2022/02/24 05:12:28;;;;;;;1.80;1.70;;;6.40;99.90;;;;;;494051;241;27567;-74
2022/02/24 05:14:31;;;;;;;2.12;1.92;;;6.40;99.90;;;;;;494117;241;27521;-77
2022/02/24 05:16:31;;;;;;;1.70;1.60;;;6.40;99.90;;;;;;494010;241;27936;-76
2022/02/24 05:18:32;;;;;;;1.80;1.70;;;6.40;99.90;;;;;;494102;241;27990;-77
2022/02/24 05:20:35;;;;;;;4.72;1.83;;;6.50;99.90;;;;;;494068;241;27788;-77
2022/02/24 05:22:34;;;;;;;1.75;1.58;;;6.50;99.90;;;;;;493942;240;27515;-73
2022/02/24 05:24:36;;;;;;;4.80;1.87;;;6.50;99.90;;;;;;494097;241;27521;-74
2022/02/24 05:26:37;;;;;;;1.48;1.37;;;6.50;99.90;;;;;;494078;241;27484;-74
2022/02/24 05:28:38;;;;;;;1.60;1.50;;;6.50;99.90;;;;;;494059;241;27508;-74
2022/02/24 05:30:40;;;;;;;1.60;1.50;;;6.50;99.90;;;;;;494117;241;28103;-75
2022/02/24 05:32:41;;;;;;;3.30;2.20;;;6.50;99.90;;;;;;494117;241;27501;-78
2022/02/24 05:34:42;;;;;;;2.10;2.00;;;6.50;99.90;;;;;;494115;236;27543;-75
2022/02/24 05:36:43;;;;;;;2.30;2.20;;;6.40;99.90;;;;;;494020;241;27463;-74
2022/02/24 05:38:45;;;;;;;2.08;1.80;;;6.50;99.90;;;;;;494035;237;27521;-75
2022/02/24 05:40:46;;;;;;;3.75;1.65;;;6.40;99.90;;;;;;494143;241;27517;-77
2022/02/24 05:42:47;;;;;;;3.58;2.03;;;6.40;99.90;;;;;;494098;241;27931;-77
2022/02/24 05:44:48;;;;;;;2.78;1.60;;;6.50;99.90;;;;;;494064;241;28119;-75
2022/02/24 05:46:50;;;;;;;1.98;1.87;;;6.50;99.90;;;;;;494060;241;27458;-75
2022/02/24 05:48:51;;;;;;;2.08;1.98;;;6.40;99.90;;;;;;494123;241;27598;-77
2022/02/24 05:50:52;;;;;;;2.22;2.05;;;6.50;99.90;;;;;;494065;238;27522;-74
2022/02/24 05:52:54;;;;;;;3.40;1.90;;;6.50;99.90;;;;;;494062;241;27482;-73
2022/02/24 05:54:55;;;;;;;2.45;2.15;;;6.50;99.90;;;;;;494072;236;27539;-75
2022/02/24 05:56:56;;;;;;;2.00;1.90;;;6.50;99.90;;;;;;494067;241;28056;-74
2022/02/24 05:58:57;;;;;;;2.42;2.22;;;6.40;99.90;;;;;;494046;241;28010;-75
2022/02/24 06:00:58;;;;;;;1.80;1.70;;;6.50;99.90;;;;;;494041;241;27535;-74
2022/02/24 06:03:00;;;;;;;1.77;1.67;;;6.40;99.90;;;;;;494053;241;27627;-78
2022/02/24 06:05:01;;;;;;;2.05;1.92;;;6.50;99.90;;;;;;494081;241;27512;-77
2022/02/24 06:07:02;;;;;;;2.17;1.50;;;6.50;99.90;;;;;;494069;241;27483;-76
2022/02/24 06:09:03;;;;;;;2.03;1.83;;;6.50;99.90;;;;;;494067;241;27591;-76
2022/02/24 06:11:05;;;;;;;2.20;2.10;;;6.40;99.90;;;;;;494074;241;28088;-76
2022/02/24 06:13:06;;;;;;;2.00;1.90;;;6.40;99.90;;;;;;494066;241;27641;-76
2022/02/24 06:15:07;;;;;;;3.33;1.90;;;6.30;99.90;;;;;;494063;241;27533;-76
2022/02/24 06:17:08;;;;;;;2.10;1.90;;;6.40;99.90;;;;;;494049;236;27473;-77
2022/02/24 06:19:10;;;;;;;1.70;1.60;;;6.40;99.90;;;;;;494055;241;27514;-77
2022/02/24 06:21:11;;;;;;;1.70;1.60;;;6.30;99.90;;;;;;494077;241;27970;-76
2022/02/24 06:23:12;;;;;;;1.90;1.80;;;6.30;99.90;;;;;;494075;241;27471;-76
2022/02/24 06:25:13;;;;;;;2.20;2.00;;;6.40;99.90;;;;;;494050;241;28105;-77
2022/02/24 06:27:15;;;;;;;2.00;1.90;;;6.30;99.90;;;;;;494089;241;27909;-76
2022/02/24 06:29:16;;;;;;;2.60;2.08;;;6.40;99.90;;;;;;494390;241;27602;-78
2022/02/24 06:31:17;;;;;;;2.10;2.00;;;6.40;99.90;;;;;;494411;241;27523;-77
2022/02/24 06:33:19;;;;;;;2.70;2.00;;;6.40;99.90;;;;;;494421;236;27478;-77
2022/02/24 06:35:20;;;;;;;2.65;2.05;;;6.40;99.90;;;;;;494056;236;27506;-76
2022/02/24 06:37:21;;;;;;;3.40;1.90;;;6.50;99.90;;;;;;494081;241;27951;-75
2022/02/24 06:39:22;;;;;;;1.98;1.60;;;6.50;99.90;;;;;;494069;241;28114;-77
2022/02/24 06:41:24;;;;;;;2.42;2.22;;;6.60;99.90;;;;;;494073;241;27543;-76
2022/02/24 06:43:25;;;;;;;1.90;1.80;;;6.50;99.90;;;;;;494054;241;27490;-76
2022/02/24 06:45:26;;;;;;;2.12;2.03;;;6.50;99.90;;;;;;494045;241;27609;-76
2022/02/24 06:47:27;;;;;;;2.60;2.40;;;6.50;99.90;;;;;;494063;241;27475;-76
2022/02/24 06:49:29;;;;;;;1.92;1.70;;;6.60;99.90;;;;;;494033;241;27510;-76
2022/02/24 06:51:30;;;;;;;2.25;1.62;;;6.50;99.90;;;;;;494065;241;28067;-76
2022/02/24 06:53:31;;;;;;;1.80;1.70;;;6.50;99.90;;;;;;494097;241;28029;-76
2022/02/24 06:55:32;;;;;;;2.03;1.92;;;6.50;99.90;;;;;;494464;241;27580;-77
2022/02/24 06:57:34;;;;;;;2.25;2.05;;;6.40;99.90;;;;;;494098;241;27462;-75
2022/02/24 06:59:35;;;;;;;3.97;2.00;;;6.40;99.90;;;;;;494061;241;27499;-76
2022/02/24 07:01:36;;;;;;;3.65;2.20;;;6.30;99.90;;;;;;494098;241;27509;-76
2022/02/24 07:03:37;;;;;;;1.92;1.80;;;6.30;99.90;;;;;;494120;240;27557;-76
2022/02/24 07:05:39;;;;;;;2.35;2.10;;;6.40;99.90;;;;;;494103;241;28016;-76
2022/02/24 07:07:40;;;;;;;1.80;1.65;;;6.40;99.90;;;;;;494237;241;27945;-77
2022/02/24 07:09:41;;;;;;;1.83;1.73;;;6.40;99.90;;;;;;494226;241;27486;-77
2022/02/24 07:11:42;;;;;;;2.00;1.80;;;6.40;99.90;;;;;;494112;241;27601;-77
2022/02/24 07:13:44;;;;;;;1.52;1.27;;;6.40;99.90;;;;;;494073;241;27479;-77
2022/02/24 07:15:45;;;;;;;2.47;1.48;;;6.40;99.90;;;;;;494090;241;27510;-76
2022/02/24 07:17:46;;;;;;;1.58;1.48;;;6.50;99.90;;;;;;494043;241;28592;-76
2022/02/24 07:19:48;;;;;;;2.25;1.58;;;6.40;99.90;;;;;;494116;241;27949;-76
2022/02/24 07:21:49;;;;;;;1.52;1.40;;;6.40;99.90;;;;;;494108;241;27519;-76
2022/02/24 07:23:50;;;;;;;1.67;1.40;;;6.40;99.90;;;;;;494058;241;27585;-76
2022/02/24 07:25:53;;;;;;;3.12;1.70;;;6.40;99.90;;;;;;494036;241;28686;-76
2022/02/24 07:27:53;;;;;;;3.72;1.60;;;6.40;99.90;;;;;;494074;241;27623;-76
2022/02/24 07:29:54;;;;;;;1.92;1.73;;;6.50;99.90;;;;;;494048;241;27502;-74
2022/02/24 07:31:55;;;;;;;1.45;1.35;;;6.40;99.90;;;;;;494091;241;27581;-74
2022/02/24 07:33:58;;;;;;;2.37;1.60;;;6.40;99.90;;;;;;494188;241;28005;-77
2022/02/24 07:35:58;;;;;;;1.70;1.60;;;6.40;99.90;;;;;;493916;241;27491;-74
2022/02/24 07:37:59;;;;;;;1.65;1.55;;;6.40;99.90;;;;;;494234;241;27601;-77
2022/02/24 07:40:00;;;;;;;1.87;1.50;;;6.50;99.90;;;;;;494190;241;27527;-77
2022/02/24 07:42:01;;;;;;;1.50;1.40;;;6.50;99.90;;;;;;494151;241;27621;-77
2022/02/24 07:44:03;;;;;;;1.80;1.60;;;6.60;99.90;;;;;;494078;241;27462;-76
2022/02/24 07:46:04;;;;;;;2.95;1.90;;;6.60;99.90;;;;;;494186;241;27975;-77
2022/02/24 07:48:05;;;;;;;2.58;1.60;;;6.70;99.90;;;;;;494087;241;28101;-73
2022/02/24 07:50:06;;;;;;;1.77;1.52;;;6.70;99.90;;;;;;494108;241;27538;-74
2022/02/24 07:52:08;;;;;;;3.73;2.00;;;6.80;99.90;;;;;;494072;241;27530;-74
2022/02/24 07:54:09;;;;;;;1.87;1.77;;;6.90;99.90;;;;;;494086;241;28337;-73
2022/02/24 07:56:10;;;;;;;2.92;1.92;;;6.90;99.90;;;;;;494187;241;28385;-78
2022/02/24 07:58:11;;;;;;;2.40;1.60;;;7.00;99.90;;;;;;494183;241;27501;-76
2022/02/24 08:00:14;;;;;;;1.93;1.70;;;7.10;99.90;;;;;;494244;241;27493;-77
2022/02/24 08:02:14;;;;;;;1.90;1.80;;;7.20;99.90;;;;;;494185;241;27863;-77
2022/02/24 08:04:15;;;;;;;2.43;1.80;;;7.30;99.90;;;;;;494231;241;29258;-76
2022/02/24 08:06:16;;;;;;;1.80;1.70;;;7.30;99.90;;;;;;494129;241;28753;-77
2022/02/24 08:08:18;;;;;;;1.70;1.60;;;7.40;99.90;;;;;;494236;241;28652;-78
2022/02/24 08:10:19;;;;;;;2.13;1.70;;;7.50;99.90;;;;;;494247;241;28111;-76
2022/02/24 08:14:40;;;;;;;2.93;2.13;;;7.70;99.90;;;;;;494072;241;28029;-74
2022/02/24 08:16:41;;;;;;;2.50;1.60;;;7.70;99.90;;;;;;494185;241;27818;-77
2022/02/24 08:18:42;;;;;;;1.63;1.53;;;7.70;99.90;;;;;;494265;241;27889;-78
2022/02/24 08:20:43;;;;;;;3.00;1.83;;;7.80;99.90;;;;;;494239;241;28058;-77
2022/02/24 08:22:45;;;;;;;2.97;1.90;;;7.80;99.90;;;;;;494218;241;28133;-77
2022/02/24 08:24:46;;;;;;;2.20;1.80;;;7.80;99.90;;;;;;494264;241;28544;-78
2022/02/24 08:26:47;;;;;;;2.57;1.83;;;7.80;99.90;;;;;;494226;241;28039;-78
2022/02/24 08:28:50;;;;;;;2.33;2.00;;;7.90;99.90;;;;;;494243;241;27813;-77
2022/02/24 08:30:50;;;;;;;2.50;2.13;;;8.00;99.90;;;;;;494134;241;27912;-77
2022/02/24 08:32:51;;;;;;;3.00;1.97;;;8.10;99.90;;;;;;494245;241;28073;-76
2022/02/24 08:34:52;;;;;;;2.17;1.97;;;8.20;99.90;;;;;;494249;241;27779;-77
2022/02/24 08:36:53;;;;;;;2.30;2.10;;;8.10;99.90;;;;;;494242;241;28026;-76
2022/02/24 08:38:55;;;;;;;2.70;1.90;;;8.10;99.90;;;;;;494204;241;28000;-77
2022/02/24 08:40:56;;;;;;;2.70;1.80;;;8.10;99.90;;;;;;494242;241;27927;-77
2022/02/24 08:42:59;;;;;;;3.20;1.80;;;8.20;99.90;;;;;;494192;241;27892;-76
2022/02/24 08:44:59;;;;;;;4.37;1.70;;;8.20;99.90;;;;;;494196;241;27857;-77
2022/02/24 08:47:00;;;;;;;2.70;2.00;;;8.20;99.90;;;;;;494256;241;27710;-77
2022/02/24 08:49:01;;;;;;;2.10;1.90;;;8.30;99.90;;;;;;494191;241;28439;-77
2022/02/24 08:51:02;;;;;;;4.20;1.70;;;8.20;99.90;;;;;;494259;241;28287;-77
2022/02/24 08:53:04;;;;;;;2.17;1.83;;;8.30;99.90;;;;;;494223;241;28189;-76
2022/02/24 08:55:05;;;;;;;2.80;1.80;;;8.40;99.90;;;;;;494216;241;28208;-77
2022/02/24 08:57:06;;;;;;;2.57;1.80;;;8.40;99.90;;;;;;494208;241;27830;-76
2022/02/24 08:59:07;;;;;;;1.80;1.50;;;8.40;99.90;;;;;;494222;241;27853;-77
2022/02/24 09:01:09;;;;;;;3.00;2.10;;;8.50;99.90;;;;;;494270;241;27982;-77
2022/02/24 09:03:10;;;;;;;3.63;2.43;;;8.50;99.90;;;;;;494234;241;27895;-77
2022/02/24 09:05:11;;;;;;;2.47;2.07;;;8.60;99.90;;;;;;494255;241;28040;-77
2022/02/24 09:07:12;;;;;;;1.93;1.73;;;8.70;99.90;;;;;;494294;241;27962;-77
2022/02/24 09:09:14;;;;;;;2.63;1.63;;;8.70;99.90;;;;;;494230;241;27972;-77
2022/02/24 09:11:17;;;;;;;2.60;1.50;;;8.70;99.90;;;;;;494274;241;27563;-77
2022/02/24 09:13:16;;;;;;;3.43;2.00;;;8.80;99.90;;;;;;494138;241;27587;-76
2022/02/24 09:15:17;;;;;;;1.57;1.47;;;8.80;99.90;;;;;;494248;241;28007;-77
2022/02/24 09:17:19;;;;;;;2.17;1.70;;;8.80;99.90;;;;;;494350;241;27956;-78
2022/02/24 09:19:20;;;;;;;3.37;1.60;;;8.90;99.90;;;;;;494217;241;28076;-76
2022/02/24 09:21:21;;;;;;;2.00;1.80;;;9.00;99.90;;;;;;494202;241;27974;-77
2022/02/24 09:23:22;;;;;;;3.87;2.17;;;9.10;99.90;;;;;;494204;241;28023;-76
2022/02/24 09:25:24;;;;;;;1.67;1.57;;;9.20;99.90;;;;;;494180;241;28202;-78
2022/02/24 09:27:27;;;;;;;5.70;2.10;;;9.40;99.90;;;;;;494214;240;27940;-76
2022/02/24 09:29:28;;;;;;;4.00;2.00;;;9.50;99.90;;;;;;494139;241;27838;-77
2022/02/24 09:31:27;;;;;;;2.70;1.90;;;9.50;99.90;;;;;;494161;241;27862;-77
2022/02/24 09:33:29;;;;;;;2.33;2.13;;;9.60;99.90;;;;;;494318;241;27605;-78
2022/02/24 09:35:30;;;;;;;4.13;1.90;;;9.60;99.90;;;;;;494337;241;27941;-77
2022/02/24 09:37:36;;;;;;;3.33;2.10;;;9.70;99.90;;;;;;494336;241;27966;-77
2022/02/24 09:39:32;;;;;;;2.50;1.77;;;9.70;99.90;;;;;;493937;241;27748;-78
2022/02/24 09:41:34;;;;;;;3.17;2.10;;;9.70;99.90;;;;;;494207;241;27840;-77
2022/02/24 09:43:36;;;;;;;2.33;2.10;;;9.80;99.90;;;;;;494177;241;28435;-77
2022/02/24 09:45:36;;;;;;;3.20;1.70;;;9.80;99.90;;;;;;494140;241;28318;-78
2022/02/24 09:47:37;;;;;;;4.40;2.27;;;9.90;99.90;;;;;;494211;241;28573;-77
2022/02/24 09:49:39;;;;;;;2.23;1.83;;;9.90;99.90;;;;;;494224;241;28467;-77
2022/02/24 09:51:43;;;;;;;2.90;1.80;;;9.90;99.90;;;;;;494265;241;28414;-77
2022/02/24 09:53:41;;;;;;;3.77;1.97;;;10.00;99.90;;;;;;493933;236;28100;-77
2022/02/24 09:55:42;;;;;;;4.77;2.30;;;9.90;99.90;;;;;;494198;241;28200;-77
2022/02/24 09:57:44;;;;;;;2.30;2.10;;;9.90;99.90;;;;;;494173;241;27823;-77
2022/02/24 09:59:45;;;;;;;2.70;2.13;;;9.80;99.90;;;;;;494203;241;27997;-76
2022/02/24 10:01:46;;;;;;;3.40;2.23;;;9.80;99.90;;;;;;494244;241;28670;-77
2022/02/24 10:03:49;;;;;;;4.00;2.20;;;9.80;99.90;;;;;;494146;241;28395;-77
2022/02/24 10:05:49;;;;;;;2.17;1.97;;;9.90;99.90;;;;;;494113;241;28435;-77
2022/02/24 10:07:52;;;;;;;2.93;2.20;;;9.90;99.90;;;;;;494147;241;27937;-77
2022/02/24 10:09:51;;;;;;;2.93;2.50;;;9.80;99.90;;;;;;494013;241;27959;-77
2022/02/24 10:11:53;;;;;;;3.67;2.33;;;9.90;99.90;;;;;;494176;236;27859;-77
2022/02/24 10:13:54;;;;;;;2.93;2.50;;;9.80;99.90;;;;;;494215;241;28025;-78
2022/02/24 10:15:55;;;;;;;2.90;2.30;;;9.90;99.90;;;;;;494169;241;27873;-78
2022/02/24 10:17:56;;;;;;;2.40;1.90;;;9.90;99.90;;;;;;494198;241;28034;-77
2022/02/24 10:19:58;;;;;;;2.40;2.20;;;10.00;99.90;;;;;;494212;241;28087;-77
2022/02/24 10:21:59;;;;;;;2.93;2.10;;;10.00;99.90;;;;;;494392;241;27880;-78
2022/02/24 10:24:00;;;;;;;3.87;2.10;;;10.00;99.90;;;;;;494291;241;27966;-77
2022/02/24 10:26:01;;;;;;;4.60;2.03;;;10.00;99.90;;;;;;494246;241;28011;-78
2022/02/24 10:28:04;;;;;;;3.20;2.10;;;10.00;99.90;;;;;;494232;241;28003;-77
2022/02/24 10:30:04;;;;;;;1.97;1.80;;;10.10;99.90;;;;;;494102;241;28058;-77
2022/02/24 10:32:05;;;;;;;3.97;2.10;;;10.10;99.90;;;;;;494226;241;28014;-77
2022/02/24 10:34:06;;;;;;;3.10;2.20;;;10.10;99.90;;;;;;494223;241;27834;-78
2022/02/24 10:36:08;;;;;;;2.03;1.90;;;10.10;99.90;;;;;;494205;241;27663;-77
2022/02/24 10:38:09;;;;;;;4.30;2.50;;;10.10;99.90;;;;;;494185;240;27981;-77
2022/02/24 10:40:10;;;;;;;2.43;2.23;;;10.10;99.90;;;;;;494143;241;28202;-78
2022/02/24 10:42:12;;;;;;;3.50;2.50;;;10.10;99.90;;;;;;494198;241;27982;-77